createdAt,value
2023-03-19T00:01:04.406Z,8.57
2023-03-19T00:02:18.266Z,8.57
2023-03-19T00:03:21.589Z,8.57
2023-03-19T00:04:26.285Z,8.57
2023-03-19T00:05:29.580Z,8.57
2023-03-19T00:06:32.670Z,8.56
2023-03-19T00:07:35.944Z,8.56
2023-03-19T00:08:38.917Z,8.56
2023-03-19T00:09:42.760Z,8.55
2023-03-19T00:10:45.634Z,8.55
2023-03-19T00:11:49.045Z,8.54
2023-03-19T00:12:52.243Z,8.54
2023-03-19T00:13:55.184Z,8.54
2023-03-19T00:14:58.094Z,8.53
2023-03-19T00:16:01.351Z,8.52
2023-03-19T00:17:04.399Z,8.52
2023-03-19T00:18:08.663Z,8.50
2023-03-19T00:19:12.160Z,8.48
2023-03-19T00:20:15.554Z,8.46
2023-03-19T00:21:18.380Z,8.43
2023-03-19T00:22:21.835Z,8.40
2023-03-19T00:23:24.808Z,8.37
2023-03-19T00:24:29.034Z,8.34
2023-03-19T00:25:32.805Z,8.31
2023-03-19T00:26:36.607Z,8.28
2023-03-19T00:27:39.568Z,8.26
2023-03-19T00:28:42.715Z,8.22
2023-03-19T00:29:45.731Z,8.19
2023-03-19T00:30:48.785Z,8.16
2023-03-19T00:31:51.717Z,8.14
2023-03-19T00:32:54.712Z,8.11
2023-03-19T00:33:59.253Z,8.09
2023-03-19T00:35:02.356Z,8.06
2023-03-19T00:36:06.950Z,8.03
2023-03-19T00:37:10.041Z,8.01
2023-03-19T00:38:12.932Z,7.99
2023-03-19T00:39:15.921Z,7.96
2023-03-19T00:40:19.088Z,7.93
2023-03-19T00:41:22.840Z,7.91
2023-03-19T00:42:26.208Z,7.88
2023-03-19T00:43:29.156Z,7.91
2023-03-19T00:44:32.155Z,8.00
2023-03-19T00:45:35.334Z,8.14
2023-03-19T00:46:38.357Z,8.28
2023-03-19T00:47:42.196Z,8.41
2023-03-19T00:48:45.180Z,8.53
2023-03-19T00:49:48.499Z,8.64
2023-03-19T00:50:51.659Z,8.72
2023-03-19T00:51:54.513Z,8.81
2023-03-19T00:52:57.350Z,8.88
2023-03-19T00:54:00.262Z,8.95
2023-03-19T00:55:03.251Z,9.01
2023-03-19T00:56:07.748Z,9.06
2023-03-19T00:57:10.946Z,9.10
2023-03-19T00:58:13.802Z,9.14
2023-03-19T00:59:16.613Z,9.17
2023-03-19T01:00:20.291Z,9.20
2023-03-19T01:01:23.395Z,9.24
2023-03-19T01:02:26.472Z,9.26
2023-03-19T01:03:30.886Z,9.28
2023-03-19T01:04:33.938Z,9.21
2023-03-19T01:06:39.831Z,8.91
2023-03-19T01:07:42.834Z,8.74
2023-03-19T01:08:45.733Z,8.59
2023-03-19T01:09:48.561Z,8.45
2023-03-19T01:10:51.708Z,8.33
2023-03-19T01:11:54.630Z,8.23
2023-03-19T01:12:57.675Z,8.14
2023-03-19T01:14:00.516Z,8.06
2023-03-19T01:15:05.051Z,7.98
2023-03-19T01:16:08.677Z,7.91
2023-03-19T01:17:12.090Z,7.83
2023-03-19T01:18:15.301Z,7.75
2023-03-19T01:19:18.373Z,7.68
2023-03-19T01:20:24.145Z,7.62
2023-03-19T01:21:31.060Z,7.62
2023-03-19T01:22:36.846Z,7.71
2023-03-19T01:23:41.021Z,7.83
2023-03-19T01:24:44.600Z,7.95
2023-03-19T01:25:47.736Z,8.06
2023-03-19T01:26:51.050Z,8.16
2023-03-19T01:28:10.475Z,8.26
2023-03-19T01:29:15.221Z,8.33
2023-03-19T01:31:56.339Z,8.47
2023-03-19T01:33:35.262Z,8.53
2023-03-19T01:34:45.155Z,8.56
2023-03-19T01:35:51.636Z,8.60
2023-03-19T01:36:56.047Z,8.64
2023-03-19T01:38:05.812Z,8.67
2023-03-19T01:39:09.312Z,8.70
2023-03-19T01:40:14.273Z,8.72
2023-03-19T01:41:17.334Z,8.74
2023-03-19T01:42:20.645Z,8.76
2023-03-19T01:43:43.840Z,8.78
2023-03-19T01:45:31.681Z,8.79
2023-03-19T01:46:55.780Z,8.80
2023-03-19T01:48:28.389Z,8.82
2023-03-19T01:49:40.536Z,8.84
2023-03-19T01:50:57.918Z,8.85
2023-03-19T01:52:07.376Z,8.86
2023-03-19T01:53:21.236Z,8.88
2023-03-19T01:54:34.604Z,8.89
2023-03-19T01:56:09.088Z,8.90
2023-03-19T01:57:25.581Z,8.90
2023-03-19T01:58:49.700Z,8.91
2023-03-19T02:00:05.014Z,8.91
2023-03-19T02:01:20.720Z,8.91
2023-03-19T02:02:24.046Z,8.89
2023-03-19T02:03:27.362Z,8.88
2023-03-19T02:04:43.501Z,8.84
2023-03-19T02:05:49.424Z,8.82
2023-03-19T02:06:57.240Z,8.80
2023-03-19T02:08:05.257Z,8.78
2023-03-19T02:09:09.452Z,8.76
2023-03-19T02:10:16.999Z,8.75
2023-03-19T02:11:21.939Z,8.74
2023-03-19T02:12:24.916Z,8.72
2023-03-19T02:13:28.291Z,8.71
2023-03-19T02:14:31.600Z,8.71
2023-03-19T02:15:34.639Z,8.71
2023-03-19T02:16:37.740Z,8.70
2023-03-19T02:17:42.338Z,8.69
2023-03-19T02:18:45.707Z,8.64
2023-03-19T02:19:51.637Z,8.59
2023-03-19T02:21:05.678Z,8.46
2023-03-19T02:22:11.990Z,8.25
2023-03-19T02:23:34.889Z,8.05
2023-03-19T02:24:58.870Z,7.80
2023-03-19T02:26:07.817Z,7.61
2023-03-19T02:27:11.742Z,7.46
2023-03-19T02:28:22.347Z,7.33
2023-03-19T02:29:26.132Z,7.28
2023-03-19T02:30:33.717Z,7.30
2023-03-19T02:31:41.046Z,7.37
2023-03-19T02:32:44.672Z,7.45
2023-03-19T02:34:20.109Z,7.52
2023-03-19T02:35:23.091Z,7.60
2023-03-19T02:36:31.872Z,7.63
2023-03-19T02:37:34.981Z,7.66
2023-03-19T02:38:39.018Z,7.67
2023-03-19T02:39:47.702Z,7.68
2023-03-19T02:40:59.695Z,7.67
2023-03-19T02:42:04.321Z,7.65
2023-03-19T02:43:07.375Z,7.65
2023-03-19T02:44:12.311Z,7.67
2023-03-19T02:45:15.892Z,7.69
2023-03-19T02:46:18.730Z,7.72
2023-03-19T02:47:21.742Z,7.75
2023-03-19T02:48:25.264Z,7.77
2023-03-19T02:49:28.093Z,7.79
2023-03-19T02:50:31.189Z,7.81
2023-03-19T02:51:34.113Z,7.82
2023-03-19T02:52:37.181Z,7.84
2023-03-19T02:53:40.121Z,7.85
2023-03-19T02:54:42.982Z,7.86
2023-03-19T02:55:45.914Z,7.87
2023-03-19T02:56:49.141Z,7.87
2023-03-19T02:57:52.074Z,7.88
2023-03-19T02:58:55.103Z,7.88
2023-03-19T02:59:58.549Z,7.89
2023-03-19T03:01:01.574Z,7.90
2023-03-19T03:02:07.006Z,7.91
2023-03-19T03:03:09.974Z,7.90
2023-03-19T03:04:15.130Z,7.91
2023-03-19T03:05:18.545Z,7.91
2023-03-19T03:06:21.644Z,7.90
2023-03-19T03:07:24.516Z,7.90
2023-03-19T03:08:28.408Z,7.90
2023-03-19T03:09:31.384Z,7.90
2023-03-19T03:10:35.318Z,7.91
2023-03-19T03:11:43.333Z,7.90
2023-03-19T03:12:46.675Z,7.89
2023-03-19T03:13:49.881Z,7.90
2023-03-19T03:14:52.704Z,7.90
2023-03-19T03:15:55.598Z,7.90
2023-03-19T03:16:58.737Z,7.89
2023-03-19T03:18:01.708Z,7.89
2023-03-19T03:19:06.014Z,7.88
2023-03-19T03:20:11.551Z,7.86
2023-03-19T03:21:14.494Z,7.85
2023-03-19T03:22:17.507Z,7.84
2023-03-19T03:23:22.081Z,7.84
2023-03-19T03:24:25.171Z,7.82
2023-03-19T03:25:28.435Z,7.81
2023-03-19T03:26:31.765Z,7.80
2023-03-19T03:27:34.963Z,7.81
2023-03-19T03:28:38.030Z,7.81
2023-03-19T03:29:41.663Z,7.81
2023-03-19T03:30:45.269Z,7.81
2023-03-19T03:31:48.207Z,7.81
2023-03-19T03:32:51.992Z,7.82
2023-03-19T03:33:54.916Z,7.81
2023-03-19T03:34:57.873Z,7.78
2023-03-19T03:36:01.282Z,7.76
2023-03-19T03:37:04.080Z,7.74
2023-03-19T03:38:06.919Z,7.72
2023-03-19T03:39:09.845Z,7.70
2023-03-19T03:40:14.402Z,7.69
2023-03-19T03:41:17.452Z,7.68
2023-03-19T03:42:21.145Z,7.67
2023-03-19T03:43:25.553Z,7.66
2023-03-19T03:44:28.497Z,7.66
2023-03-19T03:45:31.476Z,7.66
2023-03-19T03:46:34.590Z,7.66
2023-03-19T03:47:37.752Z,7.67
2023-03-19T03:48:41.192Z,7.67
2023-03-19T03:49:45.716Z,7.69
2023-03-19T03:50:49.297Z,7.69
2023-03-19T03:51:54.449Z,7.69
2023-03-19T03:52:57.464Z,7.69
2023-03-19T03:54:00.459Z,7.68
2023-03-19T03:55:03.568Z,7.69
2023-03-19T03:56:06.909Z,7.69
2023-03-19T03:57:10.005Z,7.71
2023-03-19T03:58:13.217Z,7.71
2023-03-19T03:59:16.574Z,7.71
2023-03-19T04:00:20.185Z,7.72
2023-03-19T04:01:23.185Z,7.72
2023-03-19T04:02:28.179Z,7.74
2023-03-19T04:03:31.419Z,7.74
2023-03-19T04:04:34.346Z,7.76
2023-03-19T04:05:38.029Z,7.78
2023-03-19T04:06:41.564Z,7.79
2023-03-19T04:08:13.985Z,7.81
2023-03-19T04:09:17.298Z,7.82
2023-03-19T04:10:20.431Z,7.84
2023-03-19T04:11:23.636Z,7.86
2023-03-19T04:12:27.024Z,7.87
2023-03-19T04:13:31.637Z,7.89
2023-03-19T04:14:34.482Z,7.91
2023-03-19T04:15:37.758Z,7.93
2023-03-19T04:16:44.345Z,7.95
2023-03-19T04:17:47.408Z,7.96
2023-03-19T04:18:50.712Z,7.97
2023-03-19T04:19:54.359Z,7.99
2023-03-19T04:20:57.888Z,8.00
2023-03-19T04:22:00.968Z,8.01
2023-03-19T04:23:04.238Z,8.01
2023-03-19T04:24:07.370Z,8.01
2023-03-19T04:25:10.928Z,7.99
2023-03-19T04:26:14.235Z,7.98
2023-03-19T04:27:17.187Z,7.96
2023-03-19T04:28:20.370Z,7.94
2023-03-19T04:29:23.833Z,7.93
2023-03-19T04:30:27.734Z,7.92
2023-03-19T04:31:31.511Z,7.91
2023-03-19T04:32:35.852Z,7.90
2023-03-19T04:33:39.167Z,7.89
2023-03-19T04:34:42.953Z,7.87
2023-03-19T04:35:45.912Z,7.86
2023-03-19T04:36:50.036Z,7.83
2023-03-19T04:37:53.035Z,7.81
2023-03-19T04:38:57.186Z,7.78
2023-03-19T04:40:01.070Z,7.75
2023-03-19T04:41:05.814Z,7.73
2023-03-19T04:42:11.483Z,7.71
2023-03-19T04:43:30.244Z,7.68
2023-03-19T04:44:34.089Z,7.66
2023-03-19T04:45:37.757Z,7.65
2023-03-19T04:46:42.153Z,7.64
2023-03-19T04:47:45.380Z,7.62
2023-03-19T04:48:48.988Z,7.60
2023-03-19T04:49:52.750Z,7.59
2023-03-19T04:50:57.454Z,7.57
2023-03-19T04:52:01.712Z,7.57
2023-03-19T04:53:04.729Z,7.56
2023-03-19T04:54:08.055Z,7.55
2023-03-19T04:55:11.256Z,7.55
2023-03-19T04:56:29.655Z,7.55
2023-03-19T04:57:32.802Z,7.56
2023-03-19T04:58:36.535Z,7.55
2023-03-19T04:59:39.836Z,7.56
2023-03-19T05:00:46.868Z,7.56
2023-03-19T05:01:53.040Z,7.56
2023-03-19T05:02:58.643Z,7.56
2023-03-19T05:04:03.423Z,7.57
2023-03-19T05:05:08.088Z,7.58
2023-03-19T05:06:11.930Z,7.58
2023-03-19T05:07:15.066Z,7.59
2023-03-19T05:08:18.361Z,7.59
2023-03-19T05:09:21.831Z,7.59
2023-03-19T05:10:25.116Z,7.59
2023-03-19T05:11:28.411Z,7.59
2023-03-19T05:12:44.124Z,7.56
2023-03-19T05:13:47.504Z,7.55
2023-03-19T05:14:50.442Z,7.56
2023-03-19T05:15:57.001Z,7.56
2023-03-19T05:17:00.602Z,7.57
2023-03-19T05:18:08.766Z,7.57
2023-03-19T05:19:30.021Z,7.58
2023-03-19T05:20:33.135Z,7.58
2023-03-19T05:21:41.007Z,7.60
2023-03-19T05:22:44.205Z,7.61
2023-03-19T05:23:47.134Z,7.63
2023-03-19T05:24:51.577Z,7.66
2023-03-19T05:25:54.715Z,7.67
2023-03-19T05:27:04.733Z,7.69
2023-03-19T05:28:08.935Z,7.71
2023-03-19T05:29:11.996Z,7.73
2023-03-19T05:30:27.926Z,7.75
2023-03-19T05:31:41.854Z,7.78
2023-03-19T05:32:47.051Z,7.81
2023-03-19T05:34:10.558Z,7.84
2023-03-19T05:35:14.378Z,7.86
2023-03-19T05:36:18.178Z,7.89
2023-03-19T05:37:44.253Z,7.93
2023-03-19T05:38:47.334Z,7.95
2023-03-19T05:39:54.849Z,7.98
2023-03-19T05:41:04.239Z,8.00
2023-03-19T05:42:12.810Z,8.01
2023-03-19T05:43:15.697Z,8.02
2023-03-19T05:44:19.509Z,8.04
2023-03-19T05:45:39.782Z,8.04
2023-03-19T05:46:49.711Z,8.04
2023-03-19T05:47:53.936Z,8.05
2023-03-19T05:48:57.503Z,8.06
2023-03-19T05:50:00.891Z,8.09
2023-03-19T05:51:04.660Z,8.10
2023-03-19T05:52:14.479Z,8.13
2023-03-19T05:53:17.474Z,8.15
2023-03-19T05:54:27.232Z,8.18
2023-03-19T05:55:46.650Z,8.22
2023-03-19T05:56:50.077Z,8.25
2023-03-19T05:58:08.077Z,8.29
2023-03-19T05:59:11.943Z,8.33
2023-03-19T06:00:18.273Z,8.37
2023-03-19T06:01:23.780Z,8.41
2023-03-19T06:02:27.474Z,8.43
2023-03-19T06:03:36.248Z,8.45
2023-03-19T06:04:42.859Z,8.48
2023-03-19T06:05:49.952Z,8.50
2023-03-19T06:07:00.162Z,8.54
2023-03-19T06:08:03.277Z,8.57
2023-03-19T06:09:25.120Z,8.60
2023-03-19T06:10:32.136Z,8.64
2023-03-19T06:11:36.779Z,8.67
2023-03-19T06:13:00.021Z,8.72
2023-03-19T06:14:14.013Z,8.76
2023-03-19T06:15:18.635Z,8.79
2023-03-19T06:16:21.721Z,8.83
2023-03-19T06:17:31.442Z,8.86
2023-03-19T06:18:38.358Z,8.88
2023-03-19T06:19:44.961Z,8.89
2023-03-19T06:20:48.320Z,8.91
2023-03-19T06:21:52.699Z,8.93
2023-03-19T06:22:55.544Z,8.95
2023-03-19T06:23:59.246Z,8.96
2023-03-19T06:25:07.794Z,8.98
2023-03-19T06:26:12.491Z,8.99
2023-03-19T06:27:27.465Z,9.00
2023-03-19T06:28:42.689Z,9.03
2023-03-19T06:29:45.779Z,9.06
2023-03-19T06:30:59.281Z,9.10
2023-03-19T06:32:22.050Z,9.15
2023-03-19T06:33:32.269Z,9.19
2023-03-19T06:34:36.512Z,9.23
2023-03-19T06:35:39.665Z,9.28
2023-03-19T06:36:42.894Z,9.33
2023-03-19T06:37:47.640Z,9.37
2023-03-19T06:38:51.194Z,9.42
2023-03-19T06:39:54.860Z,9.46
2023-03-19T06:40:58.097Z,9.51
2023-03-19T06:42:03.907Z,9.56
2023-03-19T06:43:08.854Z,9.60
2023-03-19T06:44:12.199Z,9.64
2023-03-19T06:45:16.603Z,9.67
2023-03-19T06:46:19.708Z,9.71
2023-03-19T06:47:23.164Z,9.72
2023-03-19T06:48:26.034Z,9.74
2023-03-19T06:49:29.157Z,9.75
2023-03-19T06:50:33.528Z,9.77
2023-03-19T06:51:37.271Z,9.80
2023-03-19T06:52:41.027Z,9.83
2023-03-19T06:53:43.975Z,9.87
2023-03-19T06:54:47.208Z,9.91
2023-03-19T06:55:50.398Z,9.95
2023-03-19T06:56:53.481Z,10.00
2023-03-19T06:57:57.022Z,10.05
2023-03-19T06:59:00.252Z,10.10
2023-03-19T07:00:06.150Z,10.16
2023-03-19T07:01:09.625Z,10.21
2023-03-19T07:02:13.068Z,10.24
2023-03-19T07:03:16.422Z,10.26
2023-03-19T07:04:19.713Z,10.29
2023-03-19T07:05:23.300Z,10.33
2023-03-19T07:06:26.732Z,10.38
2023-03-19T07:07:29.823Z,10.42
2023-03-19T07:08:33.593Z,10.47
2023-03-19T07:09:37.153Z,10.50
2023-03-19T07:10:40.807Z,10.54
2023-03-19T07:11:44.313Z,10.51
2023-03-19T07:12:47.771Z,10.40
2023-03-19T07:13:51.148Z,10.28
2023-03-19T07:14:59.204Z,10.15
2023-03-19T07:16:02.974Z,10.03
2023-03-19T07:17:07.563Z,9.94
2023-03-19T07:18:12.435Z,9.85
2023-03-19T07:19:15.706Z,9.78
2023-03-19T07:20:19.681Z,9.71
2023-03-19T07:21:23.783Z,9.66
2023-03-19T07:22:27.078Z,9.60
2023-03-19T07:23:30.576Z,9.56
2023-03-19T07:24:33.806Z,9.58
2023-03-19T07:25:37.098Z,9.67
2023-03-19T07:26:40.653Z,9.80
2023-03-19T07:27:44.870Z,9.93
2023-03-19T07:28:49.009Z,10.05
2023-03-19T07:29:52.278Z,10.18
2023-03-19T07:30:56.317Z,10.28
2023-03-19T07:31:59.658Z,10.38
2023-03-19T07:33:02.954Z,10.47
2023-03-19T07:34:09.191Z,10.53
2023-03-19T07:35:12.077Z,10.59
2023-03-19T07:36:14.993Z,10.64
2023-03-19T07:37:20.137Z,10.70
2023-03-19T07:38:24.306Z,10.76
2023-03-19T07:39:28.442Z,10.82
2023-03-19T07:40:32.152Z,10.87
2023-03-19T07:41:35.576Z,10.92
2023-03-19T07:42:38.766Z,10.97
2023-03-19T07:43:42.474Z,11.02
2023-03-19T07:44:45.579Z,11.02
2023-03-19T07:45:48.759Z,10.94
2023-03-19T07:46:52.120Z,10.83
2023-03-19T07:47:56.445Z,10.73
2023-03-19T07:48:59.577Z,10.64
2023-03-19T07:50:02.706Z,10.56
2023-03-19T07:51:07.445Z,10.49
2023-03-19T07:52:14.350Z,10.45
2023-03-19T07:53:17.568Z,10.44
2023-03-19T07:54:20.588Z,10.43
2023-03-19T07:55:23.843Z,10.44
2023-03-19T07:56:26.762Z,10.46
2023-03-19T07:57:29.946Z,10.46
2023-03-19T07:58:33.336Z,10.46
2023-03-19T07:59:36.446Z,10.47
2023-03-19T08:00:42.857Z,10.50
2023-03-19T08:01:48.440Z,10.55
2023-03-19T08:02:51.602Z,10.60
2023-03-19T08:03:54.891Z,10.64
2023-03-19T08:04:58.617Z,10.69
2023-03-19T08:06:01.591Z,10.73
2023-03-19T08:07:04.873Z,10.78
2023-03-19T08:08:08.086Z,10.83
2023-03-19T08:09:11.619Z,10.88
2023-03-19T08:10:18.236Z,10.94
2023-03-19T08:11:25.530Z,11.01
2023-03-19T08:12:30.542Z,11.07
2023-03-19T08:13:35.261Z,11.13
2023-03-19T08:14:42.999Z,11.21
2023-03-19T08:15:48.067Z,11.28
2023-03-19T08:16:51.949Z,11.34
2023-03-19T08:18:00.498Z,11.41
2023-03-19T08:19:04.176Z,11.46
2023-03-19T08:20:10.153Z,11.51
2023-03-19T08:21:13.276Z,11.55
2023-03-19T08:22:17.252Z,11.57
2023-03-19T08:23:20.875Z,11.59
2023-03-19T08:24:24.244Z,11.62
2023-03-19T08:25:27.788Z,11.64
2023-03-19T08:26:32.932Z,11.67
2023-03-19T08:27:36.697Z,11.71
2023-03-19T08:28:39.986Z,11.74
2023-03-19T08:29:43.031Z,11.78
2023-03-19T08:30:46.278Z,11.82
2023-03-19T08:31:49.424Z,11.85
2023-03-19T08:32:52.711Z,11.88
2023-03-19T08:33:56.525Z,11.92
2023-03-19T08:34:59.446Z,11.96
2023-03-19T08:36:11.955Z,12.00
2023-03-19T08:37:14.999Z,12.06
2023-03-19T08:38:18.556Z,12.11
2023-03-19T08:39:21.776Z,12.17
2023-03-19T08:40:25.345Z,12.22
2023-03-19T08:41:28.288Z,12.27
2023-03-19T08:42:31.593Z,12.33
2023-03-19T08:43:36.875Z,12.39
2023-03-19T08:44:40.072Z,12.45
2023-03-19T08:45:43.692Z,12.50
2023-03-19T08:46:47.055Z,12.55
2023-03-19T08:47:50.386Z,12.60
2023-03-19T08:48:53.807Z,12.65
2023-03-19T08:49:57.101Z,12.71
2023-03-19T08:51:03.045Z,12.77
2023-03-19T08:52:06.576Z,12.83
2023-03-19T08:53:09.495Z,12.89
2023-03-19T08:54:13.900Z,12.96
2023-03-19T08:55:18.110Z,13.03
2023-03-19T08:56:21.197Z,13.10
2023-03-19T08:57:24.137Z,13.17
2023-03-19T08:58:28.265Z,13.25
2023-03-19T08:59:34.083Z,13.32
2023-03-19T09:00:37.365Z,13.39
2023-03-19T09:01:40.903Z,13.46
2023-03-19T09:02:43.919Z,13.53
2023-03-19T09:03:47.062Z,13.60
2023-03-19T09:04:49.980Z,13.67
2023-03-19T09:05:53.213Z,13.73
2023-03-19T09:06:56.157Z,13.78
2023-03-19T09:07:59.272Z,13.84
2023-03-19T09:09:02.594Z,13.91
2023-03-19T09:10:06.236Z,13.98
2023-03-19T09:11:10.548Z,14.06
2023-03-19T09:12:16.745Z,14.14
2023-03-19T09:13:19.926Z,14.22
2023-03-19T09:14:23.173Z,14.30
2023-03-19T09:15:27.066Z,14.37
2023-03-19T09:16:31.316Z,14.44
2023-03-19T09:17:34.455Z,14.53
2023-03-19T09:18:37.379Z,14.61
2023-03-19T09:19:40.965Z,14.69
2023-03-19T09:20:44.043Z,14.78
2023-03-19T09:21:47.108Z,14.86
2023-03-19T09:22:49.946Z,14.93
2023-03-19T09:23:52.966Z,15.02
2023-03-19T09:24:55.832Z,15.10
2023-03-19T09:25:59.199Z,15.18
2023-03-19T09:27:03.079Z,15.24
2023-03-19T09:28:06.961Z,15.32
2023-03-19T09:29:09.891Z,15.40
2023-03-19T09:30:13.400Z,15.47
2023-03-19T09:31:16.631Z,15.53
2023-03-19T09:32:19.845Z,15.58
2023-03-19T09:33:22.862Z,15.64
2023-03-19T09:34:25.892Z,15.69
2023-03-19T09:35:31.346Z,15.75
2023-03-19T09:36:38.039Z,15.81
2023-03-19T09:37:41.390Z,15.87
2023-03-19T09:38:44.357Z,15.92
2023-03-19T09:39:47.185Z,15.97
2023-03-19T09:41:07.184Z,16.02
2023-03-19T09:42:18.944Z,16.08
2023-03-19T09:43:39.667Z,16.14
2023-03-19T09:44:45.638Z,16.23
2023-03-19T09:45:48.979Z,16.30
2023-03-19T09:47:13.162Z,16.38
2023-03-19T09:48:23.284Z,16.47
2023-03-19T09:49:30.050Z,16.56
2023-03-19T09:50:38.133Z,16.65
2023-03-19T09:51:49.079Z,16.72
2023-03-19T09:53:31.262Z,16.81
2023-03-19T09:54:43.296Z,16.92
2023-03-19T09:55:52.558Z,17.00
2023-03-19T09:56:56.037Z,17.07
2023-03-19T09:58:01.003Z,17.11
2023-03-19T09:59:03.942Z,17.14
2023-03-19T10:00:22.475Z,17.17
2023-03-19T10:01:37.257Z,17.22
2023-03-19T10:02:42.807Z,17.27
2023-03-19T10:04:10.902Z,17.32
2023-03-19T10:05:20.353Z,17.39
2023-03-19T10:06:42.169Z,17.45
2023-03-19T10:07:51.042Z,17.53
2023-03-19T10:08:58.960Z,17.61
2023-03-19T10:10:30.283Z,17.68
2023-03-19T10:12:06.106Z,17.76
2023-03-19T10:13:20.152Z,17.86
2023-03-19T10:14:38.290Z,17.91
2023-03-19T10:15:44.716Z,17.96
2023-03-19T10:16:52.082Z,18.01
2023-03-19T10:18:13.625Z,18.05
2023-03-19T10:19:24.525Z,18.11
2023-03-19T10:20:35.214Z,18.17
2023-03-19T10:21:47.024Z,18.23
2023-03-19T10:23:13.281Z,18.26
2023-03-19T10:24:32.002Z,18.32
2023-03-19T10:25:41.470Z,18.42
2023-03-19T10:26:45.876Z,18.50
2023-03-19T10:27:56.661Z,18.57
2023-03-19T10:29:14.762Z,18.66
2023-03-19T10:30:19.479Z,18.76
2023-03-19T10:31:26.006Z,18.83
2023-03-19T10:32:44.086Z,18.91
2023-03-19T10:34:23.551Z,19.00
2023-03-19T10:35:56.170Z,19.09
2023-03-19T10:37:07.940Z,19.16
2023-03-19T10:38:22.767Z,19.22
2023-03-19T10:39:25.785Z,19.27
2023-03-19T10:40:37.260Z,19.31
2023-03-19T10:41:45.378Z,19.37
2023-03-19T10:43:16.735Z,19.40
2023-03-19T10:44:33.348Z,19.43
2023-03-19T10:45:39.026Z,19.45
2023-03-19T10:46:42.364Z,19.45
2023-03-19T10:47:45.271Z,19.44
2023-03-19T10:48:48.569Z,19.44
2023-03-19T10:49:52.460Z,19.45
2023-03-19T10:50:55.250Z,19.47
2023-03-19T10:51:58.648Z,19.50
2023-03-19T10:53:25.348Z,19.51
2023-03-19T10:54:30.496Z,19.54
2023-03-19T10:55:34.420Z,19.53
2023-03-19T10:56:46.611Z,19.51
2023-03-19T10:57:51.706Z,19.51
2023-03-19T10:59:01.388Z,19.50
2023-03-19T11:00:18.005Z,19.47
2023-03-19T11:01:21.250Z,19.46
2023-03-19T11:02:31.105Z,19.46
2023-03-19T11:03:49.454Z,19.49
2023-03-19T11:05:22.031Z,19.53
2023-03-19T11:06:38.946Z,19.60
2023-03-19T11:07:41.930Z,19.67
2023-03-19T11:08:55.978Z,19.71
2023-03-19T11:09:59.259Z,19.72
2023-03-19T11:11:02.613Z,19.73
2023-03-19T11:12:19.638Z,19.72
2023-03-19T11:13:27.198Z,19.71
2023-03-19T11:14:35.813Z,19.70
2023-03-19T11:15:39.475Z,19.71
2023-03-19T11:16:54.283Z,19.73
2023-03-19T11:18:06.803Z,19.79
2023-03-19T11:19:20.433Z,19.84
2023-03-19T11:20:29.275Z,19.91
2023-03-19T11:21:33.011Z,20.00
2023-03-19T11:22:37.996Z,20.11
2023-03-19T11:23:42.086Z,20.21
2023-03-19T11:24:57.376Z,20.31
2023-03-19T11:26:04.166Z,20.42
2023-03-19T11:27:11.684Z,20.50
2023-03-19T11:28:20.991Z,20.54
2023-03-19T11:29:28.251Z,20.56
2023-03-19T11:30:46.608Z,20.61
2023-03-19T11:32:21.589Z,20.70
2023-03-19T11:33:47.831Z,20.83
2023-03-19T11:35:02.366Z,20.92
2023-03-19T11:36:12.063Z,21.00
2023-03-19T11:37:39.262Z,21.05
2023-03-19T11:38:54.100Z,21.09
2023-03-19T11:40:20.409Z,21.08
2023-03-19T11:41:41.947Z,21.04
2023-03-19T11:42:47.826Z,20.97
2023-03-19T11:43:57.537Z,20.90
2023-03-19T11:45:17.568Z,20.81
2023-03-19T11:46:34.503Z,20.69
2023-03-19T11:47:59.668Z,20.60
2023-03-19T11:49:05.467Z,20.62
2023-03-19T11:50:30.453Z,20.69
2023-03-19T11:52:00.822Z,20.76
2023-03-19T11:53:03.575Z,20.82
2023-03-19T11:54:31.742Z,20.85
2023-03-19T11:55:43.594Z,20.86
2023-03-19T11:56:55.905Z,20.88
2023-03-19T11:58:20.104Z,20.86
2023-03-19T11:59:40.289Z,20.80
2023-03-19T12:00:57.290Z,20.76
2023-03-19T12:02:19.211Z,20.81
2023-03-19T12:03:38.231Z,20.90
2023-03-19T12:05:16.453Z,21.04
2023-03-19T12:06:25.423Z,21.28
2023-03-19T12:07:47.049Z,21.48
2023-03-19T12:09:12.644Z,21.75
2023-03-19T12:10:33.611Z,22.02
2023-03-19T12:11:54.660Z,22.28
2023-03-19T12:13:15.356Z,22.52
2023-03-19T12:14:30.275Z,22.71
2023-03-19T12:16:02.866Z,22.88
2023-03-19T12:17:45.951Z,23.12
2023-03-19T12:19:11.714Z,23.40
2023-03-19T12:20:17.947Z,23.63
2023-03-19T12:21:40.552Z,23.79
2023-03-19T12:22:55.339Z,24.01
2023-03-19T12:24:04.553Z,24.20
2023-03-19T12:25:26.503Z,24.37
2023-03-19T12:26:54.521Z,24.60
2023-03-19T12:28:45.962Z,24.79
2023-03-19T12:30:02.035Z,25.02
2023-03-19T12:31:37.427Z,25.13
2023-03-19T12:32:43.521Z,25.30
2023-03-19T12:33:57.692Z,25.41
2023-03-19T12:35:11.851Z,25.57
2023-03-19T12:36:28.207Z,25.73
2023-03-19T12:37:45.253Z,25.84
2023-03-19T12:38:51.809Z,25.94
2023-03-19T12:40:15.199Z,26.04
2023-03-19T12:41:24.854Z,26.20
2023-03-19T12:42:33.937Z,26.33
2023-03-19T12:43:54.097Z,26.48
2023-03-19T12:44:59.546Z,26.62
2023-03-19T12:46:10.491Z,26.69
2023-03-19T12:47:26.939Z,26.78
2023-03-19T12:48:39.406Z,26.89
2023-03-19T12:49:52.407Z,27.04
2023-03-19T12:51:00.027Z,27.09
2023-03-19T12:52:24.024Z,27.17
2023-03-19T12:53:43.520Z,27.17
2023-03-19T12:54:55.377Z,27.19
2023-03-19T12:56:07.267Z,27.25
2023-03-19T12:57:18.574Z,27.33
2023-03-19T12:58:51.217Z,27.43
2023-03-19T13:00:20.481Z,27.47
2023-03-19T13:01:38.832Z,27.42
2023-03-19T13:02:57.481Z,27.38
2023-03-19T13:04:08.622Z,27.40
2023-03-19T13:05:37.508Z,27.46
2023-03-19T13:06:47.898Z,27.44
2023-03-19T13:08:17.104Z,27.34
2023-03-19T13:09:36.929Z,27.13
2023-03-19T13:10:40.384Z,26.90
2023-03-19T13:12:01.646Z,26.69
2023-03-19T13:13:25.649Z,26.39
2023-03-19T13:14:45.155Z,26.07
2023-03-19T13:15:52.859Z,25.76
2023-03-19T13:17:02.178Z,25.48
2023-03-19T13:18:33.354Z,25.22
2023-03-19T13:19:54.443Z,25.03
2023-03-19T13:21:23.507Z,25.01
2023-03-19T13:22:32.253Z,25.05
2023-03-19T13:23:38.406Z,25.07
2023-03-19T13:24:45.341Z,25.02
2023-03-19T13:25:49.429Z,24.93
2023-03-19T13:26:54.741Z,24.84
2023-03-19T13:27:57.712Z,24.72
2023-03-19T13:29:06.990Z,24.61
2023-03-19T13:30:10.261Z,24.53
2023-03-19T13:31:21.886Z,24.46
2023-03-19T13:32:40.749Z,24.36
2023-03-19T13:33:53.696Z,24.24
2023-03-19T13:35:34.112Z,24.12
2023-03-19T13:36:42.120Z,23.90
2023-03-19T13:37:55.816Z,23.74
2023-03-19T13:39:01.584Z,23.57
2023-03-19T13:40:06.032Z,23.41
2023-03-19T13:41:54.898Z,23.26
2023-03-19T13:42:57.792Z,23.00
2023-03-19T13:44:21.471Z,22.85
2023-03-19T13:45:37.669Z,22.67
2023-03-19T13:46:45.193Z,22.50
2023-03-19T13:47:51.079Z,22.36
2023-03-19T13:48:54.597Z,22.21
2023-03-19T13:50:08.803Z,22.03
2023-03-19T13:51:18.078Z,21.87
2023-03-19T13:52:21.113Z,21.73
2023-03-19T13:53:53.312Z,21.61
2023-03-19T13:55:25.197Z,21.42
2023-03-19T13:56:30.699Z,21.26
2023-03-19T13:57:36.239Z,21.15
2023-03-19T13:58:54.130Z,21.06
2023-03-19T13:59:57.354Z,20.93
2023-03-19T14:01:00.948Z,20.85
2023-03-19T14:02:24.199Z,20.76
2023-03-19T14:03:31.139Z,20.66
2023-03-19T14:04:38.027Z,20.59
2023-03-19T14:05:47.988Z,20.52
2023-03-19T14:06:55.419Z,20.46
2023-03-19T14:07:58.277Z,20.40
2023-03-19T14:09:02.059Z,20.37
2023-03-19T14:10:08.603Z,20.33
2023-03-19T14:11:22.344Z,20.29
2023-03-19T14:12:39.039Z,20.23
2023-03-19T14:13:48.169Z,20.19
2023-03-19T14:14:57.082Z,20.15
2023-03-19T14:16:21.384Z,20.11
2023-03-19T14:17:54.087Z,20.08
2023-03-19T14:19:00.437Z,20.05
2023-03-19T14:20:13.243Z,20.02
2023-03-19T14:21:56.332Z,19.99
2023-03-19T14:23:08.999Z,19.95
2023-03-19T14:26:17.309Z,19.85
2023-03-19T14:27:33.080Z,19.80
2023-03-19T14:28:41.588Z,19.76
2023-03-19T14:29:46.547Z,19.73
2023-03-19T14:30:50.396Z,19.64
2023-03-19T14:31:57.413Z,19.49
2023-03-19T14:33:06.116Z,19.29
2023-03-19T14:34:12.407Z,19.10
2023-03-19T14:35:20.310Z,18.92
2023-03-19T14:36:23.484Z,18.77
2023-03-19T14:37:34.624Z,18.60
2023-03-19T14:38:49.980Z,18.32
2023-03-19T14:40:02.883Z,18.02
2023-03-19T14:41:11.468Z,17.73
2023-03-19T14:42:28.208Z,17.47
2023-03-19T14:44:23.041Z,17.22
2023-03-19T14:45:28.600Z,16.87
2023-03-19T14:47:01.312Z,16.68
2023-03-19T14:48:38.416Z,16.44
2023-03-19T14:49:44.040Z,16.24
2023-03-19T14:51:21.446Z,16.03
2023-03-19T14:52:40.562Z,15.74
2023-03-19T14:53:52.954Z,15.53
2023-03-19T14:54:58.246Z,15.36
2023-03-19T14:56:29.861Z,15.21
2023-03-19T14:57:34.690Z,15.05
2023-03-19T14:58:37.871Z,14.95
2023-03-19T14:59:40.927Z,14.86
2023-03-19T15:00:47.569Z,14.79